Impacts TAF Board
For situational awareness. Not to be used for flight planning purposes.
IDs:

KBLI - Bellingham Intl, WA, US

Issued at 2334 UTC 18 Oct 2021
Updated at 0246 UTC 19 Oct 2021
Potential Impact None Slight Moderate High
Time0153Z 19/03Z 19/04Z 19/05Z 19/06Z 19/07Z 19/08Z 19/09Z 19/10Z 19/11Z 19/12Z 19/13Z 19/14Z 19/15Z>>
Type OBS PRVL PRVL PRVL PRVL PRVL PRVL PRVL PRVL PRVL PRVL PRVL PRVL PRVL
VIS 10 >6 >6 >6 >6 3 3 3 3 3 3 3 3 3
CIG -- 35 35 35 35 -- -- -- -- -- 30 30 30 30
Cover CLR BKN BKN BKN BKN FEW FEW FEW FEW FEW BKN BKN BKN BKN
FltCat VFR VFR VFR VFR VFR MVFR MVFR MVFR MVFR MVFR MVFR MVFR MVFR MVFR
WX -- -- -- -- -- BR BR BR BR BR BR BR BR BR
WDir VRB VRB VRB VRB VRB VRB VRB VRB VRB VRB VRB VRB VRB VRB
WSpd 0 3 3 3 3 0 0 0 0 0 2 2 2 2
WGst -- -- -- -- -- -- -- -- -- -- -- -- -- --
Raw TAF
KBLI 182334Z 1900/1924 VRB03KT P6SM BKN035
  FM190700 00000KT 3SM BR FEW250
  FM191200 VRB02KT 3SM BR SCT002 BKN030
  FM191600 02002KT P6SM SCT250


Raw METAR
KBLI 190153Z 00000KT 10SM CLR 07/07 A3000 RMK AO2 SLP167 T00720072
KBLI 190053Z 29003KT 10SM FEW030 09/09 A3000 RMK AO2 SLP167 T00940089
KBLI 182353Z 00000KT 10SM SCT030 12/08 A3000 RMK AO2 SLP166 T01170078 10128 20100 58001

METAR Board
Radar Display
Forecast Discussion
For situational awareness. Not to be used for flight planning purposes.